Time;durP1;ratioP1;P1;durP2;ratioP2;P2;SDS_P1;SDS_P2;PMS_P1;PMS_P2;Temp;Humidity;BMP_temperature;BMP_pressure;BME280_temperature;BME280_humidity;BME280_pressure;Samples;Min_cycle;Max_cycle;Signal;HPM_P1;HPM_P2
2022/11/27 00:01:11;;;;;;;16.17;5.95;;;;;;;;;;5109885;28;20039;-62
2022/11/27 00:03:38;;;;;;;21.38;6.13;;;;;;;;;;5110309;28;20050;-62
2022/11/27 00:06:04;;;;;;;22.30;6.72;;;;;;;;;;5110486;28;20092;-62
2022/11/27 00:08:30;;;;;;;17.52;6.10;;;;;;;;;;5110737;28;20394;-62
2022/11/27 00:10:56;;;;;;;15.07;6.40;;;;;;;;;;5110445;28;20067;-62
2022/11/27 00:13:22;;;;;;;17.98;6.05;;;;;;;;;;5111331;28;20082;-62
2022/11/27 00:15:48;;;;;;;21.08;6.13;;;;;;;;;;5110116;28;20497;-62
2022/11/27 00:18:14;;;;;;;19.95;6.63;;;;;;;;;;5094841;28;20048;-62
2022/11/27 00:20:40;;;;;;;20.60;6.00;;;;;;;;;;5107206;28;20390;-62
2022/11/27 00:23:06;;;;;;;16.58;6.38;;;;;;;;;;5110620;28;20047;-62
2022/11/27 00:25:32;;;;;;;19.25;6.05;;;;;;;;;;5110438;28;20035;-62
2022/11/27 00:27:58;;;;;;;20.60;6.65;;;;;;;;;;5111311;27;20043;-62
2022/11/27 00:30:24;;;;;;;22.08;7.18;;;;;;;;;;5110386;28;20050;-62
2022/11/27 00:32:50;;;;;;;21.48;6.80;;;;;;;;;;5110881;28;20035;-62
2022/11/27 00:35:16;;;;;;;19.48;6.80;;;;;;;;;;5110511;28;20042;-62
2022/11/27 00:37:42;;;;;;;21.88;6.95;;;;;;;;;;5110588;28;20092;-62
2022/11/27 00:40:09;;;;;;;16.63;6.72;;;;;;;;;;5111340;28;20044;-62
2022/11/27 00:42:35;;;;;;;13.63;5.93;;;;;;;;;;5111032;28;20046;-62
2022/11/27 00:45:01;;;;;;;16.50;6.53;;;;;;;;;;5108544;28;20052;-62
2022/11/27 00:47:27;;;;;;;17.23;6.75;;;;;;;;;;5110739;28;20036;-62
2022/11/27 00:49:53;;;;;;;17.23;6.20;;;;;;;;;;5110679;28;20038;-62
2022/11/27 00:52:19;;;;;;;20.58;6.55;;;;;;;;;;5110788;28;20071;-62
2022/11/27 00:54:45;;;;;;;18.85;6.78;;;;;;;;;;5110367;28;20043;-62
2022/11/27 00:57:11;;;;;;;17.02;6.60;;;;;;;;;;5110917;28;20118;-62
2022/11/27 00:59:37;;;;;;;26.02;7.70;;;;;;;;;;5114622;28;20046;-62
2022/11/27 01:02:03;;;;;;;14.73;6.53;;;;;;;;;;5114427;28;20050;-62
2022/11/27 01:04:29;;;;;;;19.88;7.07;;;;;;;;;;5114645;28;20112;-62
2022/11/27 01:06:55;;;;;;;20.52;7.00;;;;;;;;;;5113946;28;20043;-62
2022/11/27 01:09:21;;;;;;;15.32;6.78;;;;;;;;;;5114617;28;20415;-62
2022/11/27 01:11:47;;;;;;;17.70;6.95;;;;;;;;;;5114890;28;20039;-62
2022/11/27 01:14:17;;;;;;;18.05;7.20;;;;;;;;;;5114068;28;20044;-62
2022/11/27 01:16:44;;;;;;;17.17;7.10;;;;;;;;;;5114297;28;20094;-62
2022/11/27 01:19:10;;;;;;;21.67;6.50;;;;;;;;;;5114274;28;20040;-62
2022/11/27 01:21:36;;;;;;;20.95;7.07;;;;;;;;;;5114044;28;20501;-62
2022/11/27 01:24:03;;;;;;;20.00;6.35;;;;;;;;;;5114300;28;20043;-62
2022/11/27 01:26:29;;;;;;;21.50;7.35;;;;;;;;;;5114074;28;20111;-62
2022/11/27 01:28:56;;;;;;;17.08;6.68;;;;;;;;;;5113489;28;20481;-62
2022/11/27 01:31:24;;;;;;;17.10;6.85;;;;;;;;;;5114168;28;20047;-62
2022/11/27 01:33:54;;;;;;;18.45;6.35;;;;;;;;;;5114196;28;20039;-62
2022/11/27 01:36:20;;;;;;;18.65;6.95;;;;;;;;;;5113753;28;20177;-62
2022/11/27 01:38:47;;;;;;;20.08;6.88;;;;;;;;;;5113867;28;20039;-62
2022/11/27 01:41:14;;;;;;;18.05;6.68;;;;;;;;;;5114220;28;20046;-62
2022/11/27 01:43:42;;;;;;;20.05;8.25;;;;;;;;;;5113383;28;20051;-62
2022/11/27 01:46:27;;;;;;;16.23;6.53;;;;;;;;;;5114039;28;20044;-62
2022/11/27 01:48:55;;;;;;;20.92;6.32;;;;;;;;;;5114084;28;20043;-62
2022/11/27 01:51:22;;;;;;;22.10;7.07;;;;;;;;;;5113310;28;20051;-62
2022/11/27 01:53:49;;;;;;;16.80;6.80;;;;;;;;;;5113565;28;20036;-62
2022/11/27 01:56:15;;;;;;;17.30;6.72;;;;;;;;;;5113789;28;20093;-62
2022/11/27 01:58:41;;;;;;;15.70;6.60;;;;;;;;;;5113040;28;20110;-62
2022/11/27 02:01:08;;;;;;;20.08;7.32;;;;;;;;;;5113695;28;20039;-62
2022/11/27 02:03:34;;;;;;;22.80;6.95;;;;;;;;;;5113295;28;20263;-62
2022/11/27 02:06:00;;;;;;;22.73;7.00;;;;;;;;;;5112970;28;20046;-62
2022/11/27 02:08:26;;;;;;;14.57;6.57;;;;;;;;;;5113150;28;20035;-62
2022/11/27 02:10:52;;;;;;;16.40;7.30;;;;;;;;;;5112788;28;20482;-62
2022/11/27 02:13:29;;;;;;;15.35;6.50;;;;;;;;;;5113148;28;20037;-62
2022/11/27 02:16:05;;;;;;;18.65;6.63;;;;;;;;;;5113451;28;20043;-62
2022/11/27 02:18:34;;;;;;;16.27;6.65;;;;;;;;;;5113317;28;20052;-62
2022/11/27 02:21:18;;;;;;;22.25;6.85;;;;;;;;;;5113247;28;20130;-62
2022/11/27 02:23:59;;;;;;;15.35;6.38;;;;;;;;;;5111646;28;20043;-62
2022/11/27 02:26:31;;;;;;;17.60;6.75;;;;;;;;;;5113351;28;20040;-62
2022/11/27 02:29:05;;;;;;;17.10;6.40;;;;;;;;;;5112684;28;20043;-62
2022/11/27 02:31:36;;;;;;;19.83;6.80;;;;;;;;;;5113318;28;20048;-62
2022/11/27 02:34:13;;;;;;;18.42;7.32;;;;;;;;;;5113250;28;20388;-62
2022/11/27 02:36:40;;;;;;;16.60;6.72;;;;;;;;;;5113316;28;20374;-62
2022/11/27 02:39:08;;;;;;;16.23;7.40;;;;;;;;;;5112990;28;20538;-62
2022/11/27 02:41:43;;;;;;;22.48;6.85;;;;;;;;;;5112218;28;20059;-62
2022/11/27 02:44:10;;;;;;;13.23;6.30;;;;;;;;;;5111401;28;20032;-62
2022/11/27 02:46:37;;;;;;;17.70;6.70;;;;;;;;;;5113202;28;20043;-62
2022/11/27 02:49:06;;;;;;;15.95;7.03;;;;;;;;;;5112424;28;20043;-62
2022/11/27 02:51:36;;;;;;;18.35;7.13;;;;;;;;;;5112822;28;20027;-62
2022/11/27 02:54:04;;;;;;;15.07;6.20;;;;;;;;;;5112631;28;20383;-62
2022/11/27 02:56:31;;;;;;;20.10;7.28;;;;;;;;;;5103166;28;20043;-62
2022/11/27 02:58:59;;;;;;;17.73;6.00;;;;;;;;;;5106463;28;20050;-62
2022/11/27 03:01:28;;;;;;;15.25;6.18;;;;;;;;;;5112141;28;20470;-62
2022/11/27 03:03:55;;;;;;;17.88;6.32;;;;;;;;;;5111209;28;20043;-62
2022/11/27 03:06:25;;;;;;;13.68;7.07;;;;;;;;;;5112260;28;20115;-62
2022/11/27 03:08:57;;;;;;;18.73;7.10;;;;;;;;;;5112236;28;20061;-62
2022/11/27 03:11:24;;;;;;;14.82;6.40;;;;;;;;;;5111604;28;20073;-62
2022/11/27 03:13:53;;;;;;;15.10;6.00;;;;;;;;;;5111748;28;20074;-62
2022/11/27 03:16:30;;;;;;;14.70;5.90;;;;;;;;;;5111957;28;20051;-62
2022/11/27 03:19:14;;;;;;;20.25;7.35;;;;;;;;;;5111796;28;20048;-62
2022/11/27 03:21:42;;;;;;;16.02;6.25;;;;;;;;;;5111797;28;20737;-62
2022/11/27 03:24:08;;;;;;;12.95;6.38;;;;;;;;;;5112329;28;20044;-62
2022/11/27 03:26:37;;;;;;;18.65;5.88;;;;;;;;;;5111473;28;20051;-62
2022/11/27 03:29:05;;;;;;;12.65;5.82;;;;;;;;;;5112179;28;20043;-62
2022/11/27 03:31:32;;;;;;;14.85;5.43;;;;;;;;;;5111789;28;20032;-62
2022/11/27 03:33:58;;;;;;;16.13;5.85;;;;;;;;;;5111516;28;20043;-62
2022/11/27 03:36:24;;;;;;;14.15;5.68;;;;;;;;;;5112230;28;20479;-62
2022/11/27 03:38:51;;;;;;;14.18;5.72;;;;;;;;;;5111810;28;20092;-62
2022/11/27 03:41:17;;;;;;;17.83;5.88;;;;;;;;;;5111636;28;20120;-62
2022/11/27 03:43:51;;;;;;;16.30;5.47;;;;;;;;;;5111162;28;20146;-62
2022/11/27 03:46:28;;;;;;;14.80;6.68;;;;;;;;;;5111784;28;20375;-62
2022/11/27 03:48:54;;;;;;;15.13;5.75;;;;;;;;;;5111370;28;20031;-62
2022/11/27 03:51:25;;;;;;;18.20;5.60;;;;;;;;;;5111563;28;20393;-62
2022/11/27 03:53:56;;;;;;;13.05;5.20;;;;;;;;;;5111633;28;20066;-62
2022/11/27 03:56:40;;;;;;;17.90;5.90;;;;;;;;;;5111385;28;20531;-62
2022/11/27 03:59:14;;;;;;;14.77;5.60;;;;;;;;;;5111425;28;20100;-62
2022/11/27 04:01:40;;;;;;;13.15;5.13;;;;;;;;;;5111416;28;20043;-62
2022/11/27 04:04:06;;;;;;;11.93;5.25;;;;;;;;;;5110717;28;20071;-62
2022/11/27 04:06:32;;;;;;;19.73;5.78;;;;;;;;;;5111479;28;20044;-62
2022/11/27 04:08:58;;;;;;;17.17;5.93;;;;;;;;;;5110061;28;20500;-62
2022/11/27 04:11:25;;;;;;;17.17;5.47;;;;;;;;;;5110817;28;20032;-63
2022/11/27 04:13:51;;;;;;;17.27;5.68;;;;;;;;;;5111308;28;20059;-62
2022/11/27 04:16:17;;;;;;;14.52;5.40;;;;;;;;;;5111143;28;20056;-62
2022/11/27 04:18:43;;;;;;;18.08;4.95;;;;;;;;;;5110754;28;20044;-62
2022/11/27 04:21:10;;;;;;;14.38;5.15;;;;;;;;;;5111414;28;20035;-62
2022/11/27 04:23:37;;;;;;;13.25;4.93;;;;;;;;;;5110611;28;20043;-62
2022/11/27 04:26:03;;;;;;;11.32;5.10;;;;;;;;;;5110920;28;20118;-62
2022/11/27 04:28:29;;;;;;;14.18;4.85;;;;;;;;;;5111293;28;20039;-62
2022/11/27 04:30:55;;;;;;;22.13;5.13;;;;;;;;;;5110771;28;20104;-62
2022/11/27 04:33:22;;;;;;;12.93;5.22;;;;;;;;;;5110730;28;20459;-62
2022/11/27 04:35:48;;;;;;;14.02;4.57;;;;;;;;;;5110594;28;20373;-62
2022/11/27 04:38:14;;;;;;;15.85;4.80;;;;;;;;;;5111275;28;20038;-62
2022/11/27 04:40:40;;;;;;;12.38;4.22;;;;;;;;;;5110587;28;20096;-62
2022/11/27 04:43:06;;;;;;;16.30;4.85;;;;;;;;;;5110709;28;20670;-62
2022/11/27 04:45:32;;;;;;;11.80;4.55;;;;;;;;;;5110836;28;20118;-62
2022/11/27 04:47:58;;;;;;;12.90;4.53;;;;;;;;;;5110492;28;20078;-62
2022/11/27 04:50:24;;;;;;;14.75;5.28;;;;;;;;;;5110630;28;20114;-62
2022/11/27 04:52:50;;;;;;;15.80;5.00;;;;;;;;;;5111116;28;20498;-62
2022/11/27 04:55:16;;;;;;;16.25;4.85;;;;;;;;;;5110109;28;20039;-62
2022/11/27 04:57:42;;;;;;;15.95;4.85;;;;;;;;;;5110973;28;20379;-62
2022/11/27 05:00:08;;;;;;;14.20;4.18;;;;;;;;;;5110617;28;20039;-62
2022/11/27 05:02:35;;;;;;;13.13;4.38;;;;;;;;;;5108452;28;20047;-62
2022/11/27 05:05:01;;;;;;;16.48;4.47;;;;;;;;;;5110789;28;20047;-62
2022/11/27 05:07:27;;;;;;;14.05;4.47;;;;;;;;;;5110947;28;20040;-62
2022/11/27 05:09:53;;;;;;;12.95;4.65;;;;;;;;;;5108602;28;20081;-62
2022/11/27 05:12:19;;;;;;;14.10;4.35;;;;;;;;;;5109403;28;20063;-62
2022/11/27 05:14:45;;;;;;;11.02;4.72;;;;;;;;;;5110416;28;20039;-62
2022/11/27 05:17:11;;;;;;;12.93;4.38;;;;;;;;;;5110292;28;20066;-62
2022/11/27 05:19:37;;;;;;;11.55;4.43;;;;;;;;;;5110342;28;20173;-62
2022/11/27 05:22:03;;;;;;;11.95;4.07;;;;;;;;;;5110532;28;20047;-62
2022/11/27 05:24:29;;;;;;;17.45;4.50;;;;;;;;;;5091526;28;20703;-62
2022/11/27 05:26:55;;;;;;;11.00;4.30;;;;;;;;;;5110496;28;20082;-62
2022/11/27 05:29:22;;;;;;;13.43;4.53;;;;;;;;;;5111182;28;20036;-62
2022/11/27 05:31:48;;;;;;;13.48;4.10;;;;;;;;;;5109569;28;20123;-62
2022/11/27 05:34:14;;;;;;;9.43;4.53;;;;;;;;;;5110207;28;20047;-62
2022/11/27 05:36:41;;;;;;;14.60;4.22;;;;;;;;;;5110556;28;20044;-62
2022/11/27 05:39:07;;;;;;;9.45;3.90;;;;;;;;;;5110560;28;20040;-63
2022/11/27 05:41:34;;;;;;;11.98;4.00;;;;;;;;;;5110127;28;20039;-62
2022/11/27 05:44:00;;;;;;;14.63;4.95;;;;;;;;;;5111359;28;20043;-62
2022/11/27 05:46:26;;;;;;;10.57;4.10;;;;;;;;;;5114325;28;20046;-62
2022/11/27 05:48:52;;;;;;;11.88;4.18;;;;;;;;;;5113919;28;20039;-62
2022/11/27 05:51:18;;;;;;;10.52;4.30;;;;;;;;;;5113714;28;20118;-62
2022/11/27 05:53:45;;;;;;;13.85;3.92;;;;;;;;;;5113574;28;20053;-62
2022/11/27 05:56:15;;;;;;;12.38;4.35;;;;;;;;;;5113527;28;20127;-62
2022/11/27 05:58:41;;;;;;;13.45;4.32;;;;;;;;;;5113951;28;20366;-62
2022/11/27 06:01:07;;;;;;;13.13;4.55;;;;;;;;;;5113929;28;20036;-62
2022/11/27 06:03:34;;;;;;;11.85;4.28;;;;;;;;;;5112686;28;20702;-62
2022/11/27 06:06:11;;;;;;;12.57;4.40;;;;;;;;;;5114066;28;20102;-62
2022/11/27 06:08:37;;;;;;;17.65;4.60;;;;;;;;;;5113863;28;20039;-62
2022/11/27 06:11:07;;;;;;;14.82;4.35;;;;;;;;;;5112918;28;20575;-62
2022/11/27 06:13:34;;;;;;;14.88;4.07;;;;;;;;;;5113677;28;20039;-62
2022/11/27 06:16:03;;;;;;;9.77;4.60;;;;;;;;;;5113521;28;20143;-62
2022/11/27 06:18:29;;;;;;;12.85;4.40;;;;;;;;;;5113306;28;20048;-62
2022/11/27 06:20:55;;;;;;;12.55;4.20;;;;;;;;;;5112222;28;20047;-62
2022/11/27 06:23:21;;;;;;;11.93;4.43;;;;;;;;;;5113092;28;20045;-62
2022/11/27 06:25:48;;;;;;;15.27;4.35;;;;;;;;;;5113066;28;20469;-62
2022/11/27 06:28:13;;;;;;;13.15;4.20;;;;;;;;;;5113320;28;20669;-62
2022/11/27 06:30:40;;;;;;;9.90;4.18;;;;;;;;;;5113400;28;20118;-62
2022/11/27 06:33:06;;;;;;;12.95;4.18;;;;;;;;;;5111380;28;20093;-62
2022/11/27 06:35:32;;;;;;;14.95;4.95;;;;;;;;;;5113131;28;20521;-62
2022/11/27 06:37:58;;;;;;;8.52;3.80;;;;;;;;;;5113617;28;20036;-62
2022/11/27 06:40:24;;;;;;;7.40;4.13;;;;;;;;;;5112556;28;20039;-62
2022/11/27 06:42:50;;;;;;;13.60;4.22;;;;;;;;;;5112656;28;20431;-62
2022/11/27 06:45:16;;;;;;;14.23;4.68;;;;;;;;;;5113173;28;20071;-62
2022/11/27 06:47:42;;;;;;;16.88;4.40;;;;;;;;;;5112693;28;20036;-62
2022/11/27 06:50:08;;;;;;;13.73;4.75;;;;;;;;;;5113162;28;20518;-62
2022/11/27 06:52:34;;;;;;;10.50;4.50;;;;;;;;;;5112705;28;20044;-62
2022/11/27 06:55:00;;;;;;;11.63;4.75;;;;;;;;;;5111318;28;20044;-62
2022/11/27 06:57:26;;;;;;;10.52;4.70;;;;;;;;;;5113264;28;20062;-62
2022/11/27 06:59:52;;;;;;;14.27;5.13;;;;;;;;;;5112606;28;20036;-62
2022/11/27 07:02:18;;;;;;;12.80;4.75;;;;;;;;;;5111835;28;20133;-62
2022/11/27 07:04:44;;;;;;;12.85;4.82;;;;;;;;;;5111844;28;20055;-62
2022/11/27 07:07:10;;;;;;;15.20;5.10;;;;;;;;;;5112794;28;20044;-62
2022/11/27 07:09:36;;;;;;;9.63;4.55;;;;;;;;;;5107651;28;20038;-62
2022/11/27 07:12:04;;;;;;;13.70;5.07;;;;;;;;;;5112317;28;20465;-62
2022/11/27 07:14:30;;;;;;;16.77;5.50;;;;;;;;;;5112240;28;20043;-62
2022/11/27 07:16:56;;;;;;;13.23;5.22;;;;;;;;;;5111697;28;20052;-62
2022/11/27 07:19:22;;;;;;;13.90;5.25;;;;;;;;;;5112447;28;20089;-62
2022/11/27 07:21:48;;;;;;;17.02;4.70;;;;;;;;;;5112295;28;20531;-62
2022/11/27 07:24:14;;;;;;;11.80;5.20;;;;;;;;;;5110981;28;20039;-62
2022/11/27 07:26:40;;;;;;;16.10;5.38;;;;;;;;;;5112269;28;20042;-62
2022/11/27 07:29:06;;;;;;;13.07;5.15;;;;;;;;;;5112487;28;20486;-62
2022/11/27 07:31:32;;;;;;;14.32;5.93;;;;;;;;;;5111551;28;20036;-62
2022/11/27 07:33:58;;;;;;;19.60;9.55;;;;;;;;;;5112042;28;20050;-62
2022/11/27 07:36:29;;;;;;;24.92;11.25;;;;;;;;;;5111878;28;20478;-62
2022/11/27 07:38:55;;;;;;;12.02;7.35;;;;;;;;;;5110445;28;20055;-62
2022/11/27 07:41:21;;;;;;;15.02;7.43;;;;;;;;;;5111996;28;20043;-62
2022/11/27 07:43:47;;;;;;;14.18;6.00;;;;;;;;;;5110841;28;20047;-62
2022/11/27 07:46:15;;;;;;;12.85;6.03;;;;;;;;;;5111663;28;20390;-62
2022/11/27 07:48:41;;;;;;;11.00;5.55;;;;;;;;;;5111806;28;20039;-62
2022/11/27 07:51:08;;;;;;;13.80;5.85;;;;;;;;;;5111827;28;20084;-62
2022/11/27 07:53:38;;;;;;;15.20;5.88;;;;;;;;;;5111228;28;20051;-62
2022/11/27 07:56:05;;;;;;;15.23;6.05;;;;;;;;;;5111494;28;20040;-62
2022/11/27 07:58:31;;;;;;;13.65;5.93;;;;;;;;;;5111665;28;20402;-62
2022/11/27 08:00:57;;;;;;;12.27;5.60;;;;;;;;;;5111256;28;20039;-62
2022/11/27 08:03:23;;;;;;;10.52;5.22;;;;;;;;;;5110993;28;20052;-62
2022/11/27 08:05:49;;;;;;;15.98;5.90;;;;;;;;;;5111387;28;20516;-62
2022/11/27 08:08:15;;;;;;;17.67;6.07;;;;;;;;;;5110203;28;20035;-62
2022/11/27 08:10:41;;;;;;;13.50;5.47;;;;;;;;;;5111368;28;20049;-62
2022/11/27 08:13:07;;;;;;;17.85;6.38;;;;;;;;;;5111127;28;20028;-62
2022/11/27 08:15:33;;;;;;;19.88;7.65;;;;;;;;;;5110350;28;20513;-62
2022/11/27 08:18:00;;;;;;;18.60;7.80;;;;;;;;;;5111544;28;20712;-62
2022/11/27 08:20:26;;;;;;;16.55;7.10;;;;;;;;;;5111329;28;20043;-63
2022/11/27 08:22:52;;;;;;;11.27;5.97;;;;;;;;;;5110568;28;20130;-62
2022/11/27 08:25:18;;;;;;;18.55;6.75;;;;;;;;;;5110815;28;20032;-62
2022/11/27 08:27:45;;;;;;;12.48;6.03;;;;;;;;;;5111027;28;20132;-62
2022/11/27 08:30:11;;;;;;;19.40;6.60;;;;;;;;;;5111171;28;20043;-62
2022/11/27 08:32:40;;;;;;;13.80;6.03;;;;;;;;;;5110918;28;20039;-62
2022/11/27 08:35:07;;;;;;;18.85;6.20;;;;;;;;;;5110823;28;20054;-62
2022/11/27 08:37:33;;;;;;;13.15;5.90;;;;;;;;;;5110694;28;20481;-62
2022/11/27 08:39:59;;;;;;;15.82;6.00;;;;;;;;;;5111159;28;20043;-62
2022/11/27 08:42:25;;;;;;;14.15;6.35;;;;;;;;;;5110993;28;20035;-62
2022/11/27 08:44:51;;;;;;;17.95;6.40;;;;;;;;;;5109623;28;20040;-62
2022/11/27 08:47:17;;;;;;;15.00;6.38;;;;;;;;;;5110781;28;20067;-62
2022/11/27 08:49:43;;;;;;;16.15;6.43;;;;;;;;;;5110915;28;20575;-62
2022/11/27 08:52:10;;;;;;;14.93;6.45;;;;;;;;;;5110578;28;20039;-62
2022/11/27 08:54:36;;;;;;;13.45;7.05;;;;;;;;;;5110517;28;20728;-63
2022/11/27 08:57:02;;;;;;;14.95;6.95;;;;;;;;;;5110112;28;20047;-62
2022/11/27 08:59:28;;;;;;;16.65;7.13;;;;;;;;;;5110457;28;20354;-62
2022/11/27 09:01:54;;;;;;;19.90;6.60;;;;;;;;;;5111113;28;20046;-62
2022/11/27 09:04:20;;;;;;;18.98;7.10;;;;;;;;;;5110114;28;20044;-62
2022/11/27 09:06:50;;;;;;;16.98;6.90;;;;;;;;;;5110251;28;20040;-62
2022/11/27 09:09:16;;;;;;;16.10;6.88;;;;;;;;;;5110829;28;20088;-62
2022/11/27 09:11:42;;;;;;;16.58;7.50;;;;;;;;;;5110697;28;20500;-62
2022/11/27 09:14:08;;;;;;;16.27;7.13;;;;;;;;;;5110244;28;20039;-62
2022/11/27 09:16:35;;;;;;;15.43;6.95;;;;;;;;;;5110178;28;20059;-62
2022/11/27 09:19:01;;;;;;;18.95;6.75;;;;;;;;;;5112440;28;20393;-62
2022/11/27 09:21:29;;;;;;;17.05;6.95;;;;;;;;;;5114466;28;20039;-62
2022/11/27 09:23:56;;;;;;;16.02;7.55;;;;;;;;;;5114062;28;20047;-62
2022/11/27 09:26:24;;;;;;;14.23;6.40;;;;;;;;;;5114711;28;20063;-62
2022/11/27 09:28:50;;;;;;;16.02;7.07;;;;;;;;;;5114037;28;20071;-62
2022/11/27 09:31:17;;;;;;;19.40;6.93;;;;;;;;;;5114693;28;20042;-62
2022/11/27 09:33:43;;;;;;;17.75;7.25;;;;;;;;;;5114316;28;20039;-62
2022/11/27 09:36:12;;;;;;;16.85;7.70;;;;;;;;;;5113480;28;20035;-62
2022/11/27 09:38:38;;;;;;;14.82;7.07;;;;;;;;;;5114542;28;20047;-62
2022/11/27 09:41:18;;;;;;;16.80;7.20;;;;;;;;;;5111561;28;20093;-62
2022/11/27 09:44:05;;;;;;;19.23;7.95;;;;;;;;;;5112888;28;20142;-62
2022/11/27 09:46:33;;;;;;;17.27;7.50;;;;;;;;;;5108420;28;20055;-62
2022/11/27 09:49:02;;;;;;;17.52;7.53;;;;;;;;;;5112965;28;20482;-62
2022/11/27 09:51:34;;;;;;;18.42;7.13;;;;;;;;;;5113551;28;20043;-61
2022/11/27 09:54:06;;;;;;;19.15;8.32;;;;;;;;;;5114066;28;20046;-61
2022/11/27 09:56:34;;;;;;;16.00;8.27;;;;;;;;;;5113792;28;20043;-61
2022/11/27 09:59:00;;;;;;;19.13;8.27;;;;;;;;;;5113757;28;20123;-61
2022/11/27 10:01:28;;;;;;;16.17;7.90;;;;;;;;;;5113892;28;20389;-61
2022/11/27 10:03:54;;;;;;;20.17;7.70;;;;;;;;;;5113327;28;20436;-61
2022/11/27 10:06:25;;;;;;;19.33;8.13;;;;;;;;;;5113045;28;20039;-61
2022/11/27 10:08:50;;;;;;;18.42;9.38;;;;;;;;;;5104508;28;20036;-61
2022/11/27 10:11:22;;;;;;;17.83;8.00;;;;;;;;;;5113215;28;20042;-61
2022/11/27 10:13:55;;;;;;;23.83;8.38;;;;;;;;;;5113180;28;20702;-61
2022/11/27 10:16:33;;;;;;;18.30;7.95;;;;;;;;;;5112775;28;20117;-61
2022/11/27 10:19:11;;;;;;;16.55;7.60;;;;;;;;;;5113825;28;20043;-61
2022/11/27 10:21:42;;;;;;;20.23;8.88;;;;;;;;;;5110659;28;20040;-61
2022/11/27 10:24:11;;;;;;;17.13;7.97;;;;;;;;;;5112991;28;20078;-61
2022/11/27 10:26:43;;;;;;;22.08;8.60;;;;;;;;;;5113350;28;20114;-61
2022/11/27 10:29:28;;;;;;;19.90;7.75;;;;;;;;;;5112882;28;20040;-61
2022/11/27 10:31:58;;;;;;;18.02;8.32;;;;;;;;;;5112441;28;20097;-61
2022/11/27 10:34:27;;;;;;;18.52;7.07;;;;;;;;;;5113486;28;20681;-61
2022/11/27 10:36:55;;;;;;;17.38;7.70;;;;;;;;;;5112290;28;20043;-61
2022/11/27 10:39:27;;;;;;;17.50;7.25;;;;;;;;;;5113393;28;20043;-61
2022/11/27 10:41:56;;;;;;;16.65;7.85;;;;;;;;;;5113273;28;20251;-61
2022/11/27 10:44:26;;;;;;;18.63;7.95;;;;;;;;;;5107319;28;20160;-61
2022/11/27 10:46:54;;;;;;;19.70;7.63;;;;;;;;;;5112992;28;20410;-61
2022/11/27 10:49:20;;;;;;;21.48;8.57;;;;;;;;;;5112978;28;20040;-61
2022/11/27 10:51:46;;;;;;;16.80;8.25;;;;;;;;;;5112414;28;20051;-61
2022/11/27 10:54:18;;;;;;;15.38;7.65;;;;;;;;;;5112478;28;20043;-62
2022/11/27 10:56:47;;;;;;;18.75;7.18;;;;;;;;;;5112613;28;20047;-62
2022/11/27 10:59:19;;;;;;;19.67;7.63;;;;;;;;;;5112475;28;20132;-62
2022/11/27 11:01:46;;;;;;;18.07;7.70;;;;;;;;;;5112654;28;20043;-62
2022/11/27 11:04:13;;;;;;;18.65;8.23;;;;;;;;;;5111941;28;20301;-62
2022/11/27 11:06:42;;;;;;;14.88;7.30;;;;;;;;;;5112308;28;20038;-62
2022/11/27 11:09:22;;;;;;;19.67;7.88;;;;;;;;;;5112419;28;20035;-62
2022/11/27 11:11:48;;;;;;;18.50;8.10;;;;;;;;;;5099271;28;20110;-62
2022/11/27 11:14:25;;;;;;;17.00;8.13;;;;;;;;;;5112239;28;20169;-62
2022/11/27 11:16:52;;;;;;;21.85;7.50;;;;;;;;;;5111905;28;20051;-62
2022/11/27 11:19:25;;;;;;;13.95;7.60;;;;;;;;;;5112555;28;20051;-63
2022/11/27 11:21:51;;;;;;;18.83;7.57;;;;;;;;;;5109744;28;20035;-63
2022/11/27 11:24:38;;;;;;;20.33;6.82;;;;;;;;;;5111859;28;20071;-63
2022/11/27 11:27:06;;;;;;;20.92;7.13;;;;;;;;;;5111833;28;20494;-63
2022/11/27 11:29:37;;;;;;;15.05;7.53;;;;;;;;;;5112270;28;20044;-63
2022/11/27 11:32:09;;;;;;;16.83;7.07;;;;;;;;;;5110427;28;20093;-63
2022/11/27 11:34:35;;;;;;;17.67;7.47;;;;;;;;;;5111933;28;20050;-63
2022/11/27 11:37:03;;;;;;;15.45;7.32;;;;;;;;;;5111881;28;20043;-63
2022/11/27 11:39:31;;;;;;;14.23;7.63;;;;;;;;;;5112079;28;20075;-63
2022/11/27 11:41:57;;;;;;;13.45;6.93;;;;;;;;;;5111574;28;20065;-63
2022/11/27 11:44:28;;;;;;;12.20;6.82;;;;;;;;;;5111533;28;20044;-63
2022/11/27 11:46:55;;;;;;;19.38;7.55;;;;;;;;;;5112082;28;20043;-63
2022/11/27 11:49:20;;;;;;;14.60;7.40;;;;;;;;;;5111314;28;20474;-63
2022/11/27 11:52:05;;;;;;;14.07;7.05;;;;;;;;;;5111905;28;20040;-63
2022/11/27 11:54:40;;;;;;;18.38;7.45;;;;;;;;;;5111713;28;20043;-63
2022/11/27 11:57:17;;;;;;;10.45;6.55;;;;;;;;;;5111118;28;20044;-63
2022/11/27 12:00:16;;;;;;;12.68;6.30;;;;;;;;;;5111616;28;20737;-63
2022/11/27 12:02:57;;;;;;;17.65;7.05;;;;;;;;;;5068250;28;20052;-63
2022/11/27 12:05:32;;;;;;;15.63;6.90;;;;;;;;;;5108744;28;20401;-63
2022/11/27 12:08:04;;;;;;;15.60;6.75;;;;;;;;;;5110003;28;20040;-63
2022/11/27 12:10:30;;;;;;;15.70;7.65;;;;;;;;;;5111315;28;20043;-63
2022/11/27 12:13:02;;;;;;;17.20;8.85;;;;;;;;;;5110697;28;20105;-63
2022/11/27 12:15:28;;;;;;;16.42;6.50;;;;;;;;;;5111334;28;20043;-63
2022/11/27 12:17:57;;;;;;;14.75;7.10;;;;;;;;;;5110708;28;20553;-63
2022/11/27 12:20:29;;;;;;;12.27;6.70;;;;;;;;;;5110540;28;20048;-63
2022/11/27 12:23:14;;;;;;;13.80;7.13;;;;;;;;;;5111563;28;20127;-63
2022/11/27 12:25:47;;;;;;;16.33;7.28;;;;;;;;;;5110309;28;20073;-63
2022/11/27 12:28:13;;;;;;;;;;;;;;;;;;5111035;28;20043;-63
2022/11/27 12:30:39;;;;;;;14.25;6.72;;;;;;;;;;5111229;28;19916;-63
2022/11/27 12:33:15;;;;;;;15.18;7.05;;;;;;;;;;5111165;28;20054;-63
2022/11/27 12:35:56;;;;;;;14.07;7.20;;;;;;;;;;5110474;28;20488;-63
2022/11/27 12:38:25;;;;;;;14.10;6.88;;;;;;;;;;5111146;28;20035;-63
2022/11/27 12:41:10;;;;;;;11.27;6.68;;;;;;;;;;5110572;28;20046;-63
2022/11/27 12:43:42;;;;;;;11.80;6.70;;;;;;;;;;5110955;28;20043;-63
2022/11/27 12:46:14;;;;;;;12.60;6.53;;;;;;;;;;5108620;28;20043;-63
2022/11/27 12:48:47;;;;;;;18.83;8.52;;;;;;;;;;5110640;28;20045;-63
2022/11/27 12:51:13;;;;;;;;;;;;;;;;;;5111566;28;20670;-63
2022/11/27 12:53:42;;;;;;;18.02;8.82;;;;;;;;;;5111589;28;19926;-63
2022/11/27 12:56:21;;;;;;;15.85;7.40;;;;;;;;;;5114886;28;20043;-63
2022/11/27 12:58:53;;;;;;;12.98;6.93;;;;;;;;;;5115318;28;20351;-63
2022/11/27 13:01:38;;;;;;;14.05;6.68;;;;;;;;;;5115017;28;20459;-63
2022/11/27 13:04:20;;;;;;;14.73;7.18;;;;;;;;;;5110584;28;20054;-63
2022/11/27 13:06:55;;;;;;;10.93;6.63;;;;;;;;;;5105207;28;20567;-63
2022/11/27 13:09:27;;;;;;;11.13;6.65;;;;;;;;;;5114598;28;20054;-63
2022/11/27 13:11:53;;;;;;;13.18;6.63;;;;;;;;;;5114592;28;20040;-63
2022/11/27 13:14:20;;;;;;;11.85;6.25;;;;;;;;;;5114774;28;20039;-63
2022/11/27 13:16:49;;;;;;;14.52;6.70;;;;;;;;;;5114256;28;20051;-63
2022/11/27 13:19:24;;;;;;;14.05;7.68;;;;;;;;;;5114528;28;20430;-63
2022/11/27 13:21:52;;;;;;;12.80;6.75;;;;;;;;;;5114472;28;20545;-63
2022/11/27 13:24:18;;;;;;;18.05;7.75;;;;;;;;;;5114428;28;20071;-63
2022/11/27 13:27:00;;;;;;;16.25;8.52;;;;;;;;;;5114345;28;20035;-63
2022/11/27 13:29:28;;;;;;;15.45;7.93;;;;;;;;;;5114559;28;20093;-63
2022/11/27 13:31:57;;;;;;;16.77;7.80;;;;;;;;;;5114383;28;20085;-63
2022/11/27 13:34:26;;;;;;;13.82;6.93;;;;;;;;;;5114095;28;20431;-63
2022/11/27 13:37:05;;;;;;;11.75;6.38;;;;;;;;;;5114532;28;20043;-63
2022/11/27 13:39:34;;;;;;;15.63;7.22;;;;;;;;;;5114334;28;20093;-63
2022/11/27 13:42:03;;;;;;;13.50;7.28;;;;;;;;;;5113789;28;20047;-63
2022/11/27 13:44:29;;;;;;;15.63;7.38;;;;;;;;;;5113877;28;20061;-63
2022/11/27 13:46:59;;;;;;;12.20;7.05;;;;;;;;;;5114438;28;20359;-63
2022/11/27 13:49:28;;;;;;;14.38;7.00;;;;;;;;;;5113674;28;20067;-63
2022/11/27 13:52:04;;;;;;;12.25;7.10;;;;;;;;;;5114090;28;20084;-63
2022/11/27 13:54:30;;;;;;;10.13;6.03;;;;;;;;;;5114193;28;20093;-63
2022/11/27 13:56:56;;;;;;;11.68;6.78;;;;;;;;;;5113755;28;20075;-63
2022/11/27 13:59:24;;;;;;;12.75;6.25;;;;;;;;;;5114308;28;20052;-63
2022/11/27 14:01:58;;;;;;;13.60;6.75;;;;;;;;;;5113575;28;20088;-63
2022/11/27 14:04:25;;;;;;;12.35;6.15;;;;;;;;;;5112454;28;20075;-63
2022/11/27 14:06:53;;;;;;;10.43;5.85;;;;;;;;;;5113188;28;20038;-63
2022/11/27 14:09:19;;;;;;;15.90;6.97;;;;;;;;;;5113702;28;20595;-63
2022/11/27 14:11:47;;;;;;;15.95;7.32;;;;;;;;;;5113323;28;20548;-63
2022/11/27 14:14:23;;;;;;;15.23;7.20;;;;;;;;;;5113524;28;20407;-63
2022/11/27 14:17:03;;;;;;;13.60;8.00;;;;;;;;;;5113171;28;20126;-63
2022/11/27 14:19:33;;;;;;;13.35;7.55;;;;;;;;;;5113208;28;20047;-63
2022/11/27 14:22:00;;;;;;;15.70;8.00;;;;;;;;;;5113321;28;20046;-63
2022/11/27 14:24:30;;;;;;;16.35;8.98;;;;;;;;;;5112924;28;20051;-63
2022/11/27 14:26:56;;;;;;;14.23;8.40;;;;;;;;;;5113405;28;20079;-63
2022/11/27 14:29:23;;;;;;;14.40;7.82;;;;;;;;;;5112138;28;20085;-63
2022/11/27 14:31:59;;;;;;;14.35;7.53;;;;;;;;;;5113166;28;20160;-63
2022/11/27 14:34:26;;;;;;;17.05;8.35;;;;;;;;;;5113190;28;20043;-63
2022/11/27 14:36:52;;;;;;;15.88;7.55;;;;;;;;;;5113339;28;20039;-63
2022/11/27 14:39:22;;;;;;;13.80;8.18;;;;;;;;;;5113282;28;20043;-63